X  Cerrar Datos meteorológicos de aviación METAR     LYNI Nis Airport
Temperatura
20°C Temperatura
13°C Punto de rocío
64% Humedad



Viento
15 MPH
24 KM/H
7 M/S
13 NUDO



330°
NNO
Condiciones actuales

Parcialmente nublado Parcialmente nublado
Presión 1015.92 (hPa) - 30 (inHg)
Visibilidad 6 (milla) - 9.7 (km)
Aeropuerto
Código de aeropuerto LYNI

localidad: Nis Airport
Distancia: 63 (mi)

Metar:
LYNI 231230Z 33013KT 9999 FEW033 SCT060 20/13 Q1016 NOSIG

Hora: 23-05-2024 14:30 CEST